createdAt,value
2023-05-21T00:00:24.128Z,1.48
2023-05-21T00:03:47.150Z,1.30
2023-05-21T00:07:09.668Z,1.50
2023-05-21T00:10:31.686Z,1.65
2023-05-21T00:13:54.842Z,1.60
2023-05-21T00:17:18.141Z,1.52
2023-05-21T00:20:41.904Z,1.35
2023-05-21T00:24:03.770Z,1.80
2023-05-21T00:27:25.844Z,1.55
2023-05-21T00:30:48.934Z,1.35
2023-05-21T00:34:11.068Z,1.38
2023-05-21T00:37:34.413Z,1.15
2023-05-21T00:40:56.187Z,1.80
2023-05-21T00:44:19.424Z,1.55
2023-05-21T00:47:44.695Z,1.20
2023-05-21T00:51:07.585Z,1.40
2023-05-21T00:54:30.210Z,1.35
2023-05-21T00:57:52.107Z,1.15
2023-05-21T01:01:14.847Z,1.20
2023-05-21T01:04:38.644Z,1.40
2023-05-21T01:08:00.707Z,1.35
2023-05-21T01:11:23.223Z,1.48
2023-05-21T01:14:46.205Z,1.60
2023-05-21T01:18:09.778Z,1.65
2023-05-21T01:21:37.587Z,1.48
2023-05-21T01:25:02.856Z,1.35
2023-05-21T01:28:24.759Z,1.15
2023-05-21T01:32:00.175Z,1.33
2023-05-21T01:35:26.799Z,1.60
2023-05-21T01:38:55.538Z,1.65
2023-05-21T01:42:21.064Z,1.77
2023-05-21T01:45:45.504Z,1.15
2023-05-21T01:49:09.094Z,1.25
2023-05-21T01:52:31.390Z,1.20
2023-05-21T01:55:54.666Z,1.45
2023-05-21T01:59:18.586Z,1.45
2023-05-21T02:02:40.481Z,1.35
2023-05-21T02:06:02.884Z,1.00
2023-05-21T02:09:24.753Z,1.30
2023-05-21T02:12:46.524Z,1.35
2023-05-21T02:16:11.891Z,1.38
2023-05-21T02:19:33.985Z,1.38
2023-05-21T02:22:56.172Z,1.35
2023-05-21T02:26:18.740Z,1.20
2023-05-21T02:29:40.692Z,1.05
2023-05-21T02:33:03.907Z,1.70
2023-05-21T02:36:26.747Z,1.60
2023-05-21T02:39:48.703Z,1.15
2023-05-21T02:43:10.789Z,1.27
2023-05-21T02:46:32.581Z,1.17
2023-05-21T02:49:56.155Z,1.50
2023-05-21T02:53:17.873Z,1.30
2023-05-21T02:56:39.708Z,1.40
2023-05-21T03:00:01.442Z,1.50
2023-05-21T03:03:23.657Z,1.27
2023-05-21T03:06:47.293Z,1.50
2023-05-21T03:10:09.902Z,1.63
2023-05-21T03:13:31.789Z,1.40
2023-05-21T03:16:53.687Z,1.33
2023-05-21T03:20:18.891Z,1.58
2023-05-21T03:23:42.801Z,1.63
2023-05-21T03:27:06.651Z,1.83
2023-05-21T03:30:28.635Z,1.45
2023-05-21T03:33:51.331Z,1.60
2023-05-21T03:37:13.419Z,1.75
2023-05-21T03:40:36.797Z,1.73
2023-05-21T03:43:58.894Z,2.40
2023-05-21T03:47:21.024Z,1.80
2023-05-21T03:50:43.510Z,1.70
2023-05-21T03:54:05.899Z,2.17
2023-05-21T03:57:29.702Z,2.00
2023-05-21T04:00:51.556Z,2.00
2023-05-21T04:04:13.399Z,1.50
2023-05-21T04:07:38.426Z,1.42
2023-05-21T04:11:00.441Z,1.67
2023-05-21T04:14:24.223Z,1.40
2023-05-21T04:17:46.304Z,1.40
2023-05-21T04:21:07.934Z,1.05
2023-05-21T04:24:29.634Z,1.40
2023-05-21T04:27:51.550Z,1.40
2023-05-21T04:31:15.317Z,1.77
2023-05-21T04:34:36.961Z,1.50
2023-05-21T04:37:58.704Z,1.40
2023-05-21T04:41:21.441Z,1.58
2023-05-21T04:44:44.698Z,1.50
2023-05-21T04:48:08.381Z,1.15
2023-05-21T04:51:30.673Z,1.50
2023-05-21T04:54:54.326Z,1.63
2023-05-21T04:58:18.155Z,1.98
2023-05-21T05:01:40.079Z,1.70
2023-05-21T05:05:03.523Z,1.25
2023-05-21T05:08:25.987Z,1.90
2023-05-21T05:11:48.022Z,1.67
2023-05-21T05:15:11.100Z,1.23
2023-05-21T05:18:34.203Z,1.50
2023-05-21T05:21:57.544Z,1.67
2023-05-21T05:25:20.032Z,1.80
2023-05-21T05:28:41.856Z,1.52
2023-05-21T05:32:04.023Z,1.60
2023-05-21T05:35:25.996Z,1.55
2023-05-21T05:38:49.177Z,1.95
2023-05-21T05:42:11.330Z,1.92
2023-05-21T05:45:33.206Z,1.98
2023-05-21T05:48:55.213Z,2.15
2023-05-21T05:52:17.199Z,2.40
2023-05-21T05:55:40.306Z,1.70
2023-05-21T05:59:02.286Z,1.88
2023-05-21T06:02:24.250Z,2.20
2023-05-21T06:05:46.490Z,2.00
2023-05-21T06:09:08.231Z,2.40
2023-05-21T06:12:31.374Z,2.97
2023-05-21T06:15:54.539Z,2.08
2023-05-21T06:19:16.552Z,2.38
2023-05-21T06:22:38.555Z,2.42
2023-05-21T06:26:00.911Z,2.20
2023-05-21T06:29:24.456Z,2.22
2023-05-21T06:32:46.667Z,1.95
2023-05-21T06:36:09.232Z,2.10
2023-05-21T06:39:31.209Z,2.53
2023-05-21T06:42:53.093Z,2.55
2023-05-21T06:46:16.681Z,2.42
2023-05-21T06:49:38.630Z,2.15
2023-05-21T06:53:00.831Z,2.10
2023-05-21T06:56:22.998Z,2.35
2023-05-21T06:59:44.952Z,1.88
2023-05-21T07:03:08.483Z,2.50
2023-05-21T07:06:30.645Z,2.15
2023-05-21T07:09:52.626Z,1.90
2023-05-21T07:13:14.713Z,2.58
2023-05-21T07:16:36.459Z,2.55
2023-05-21T07:19:59.413Z,2.10
2023-05-21T07:23:22.174Z,2.28
2023-05-21T07:26:44.233Z,2.10
2023-05-21T07:30:07.188Z,2.10
2023-05-21T07:33:29.766Z,2.40
2023-05-21T07:36:53.003Z,1.63
2023-05-21T07:40:15.457Z,2.20
2023-05-21T07:43:37.933Z,2.53
2023-05-21T07:47:00.133Z,1.95
2023-05-21T07:50:22.507Z,3.10
2023-05-21T07:53:46.052Z,2.40
2023-05-21T07:57:08.135Z,2.00
2023-05-21T08:00:30.166Z,2.10
2023-05-21T08:03:52.075Z,3.10
2023-05-21T08:07:17.087Z,2.22
2023-05-21T08:10:40.356Z,2.40
2023-05-21T08:14:02.569Z,2.10
2023-05-21T08:17:24.652Z,2.13
2023-05-21T08:20:46.566Z,2.63
2023-05-21T08:24:08.518Z,2.10
2023-05-21T08:27:31.934Z,2.20
2023-05-21T08:30:54.051Z,2.08
2023-05-21T08:34:16.683Z,2.13
2023-05-21T08:37:38.652Z,2.15
2023-05-21T08:41:01.360Z,2.40
2023-05-21T08:44:28.597Z,2.00
2023-05-21T08:47:56.556Z,1.73
2023-05-21T08:51:18.705Z,1.90
2023-05-21T08:54:41.029Z,1.70
2023-05-21T08:58:05.755Z,2.15
2023-05-21T09:01:29.678Z,1.90
2023-05-21T09:04:57.176Z,1.60
2023-05-21T09:08:21.259Z,1.77
2023-05-21T09:11:43.942Z,2.72
2023-05-21T09:15:07.242Z,2.05
2023-05-21T09:18:30.496Z,1.98
2023-05-21T09:21:53.374Z,2.05
2023-05-21T09:25:17.254Z,1.83
2023-05-21T09:28:39.316Z,2.22
2023-05-21T09:32:08.215Z,1.58
2023-05-21T09:35:31.552Z,1.77
2023-05-21T09:38:53.551Z,2.05
2023-05-21T09:42:16.423Z,1.77
2023-05-21T09:45:38.669Z,1.80
2023-05-21T09:49:00.708Z,1.38
2023-05-21T09:52:28.391Z,2.00
2023-05-21T09:55:56.681Z,1.83
2023-05-21T09:59:18.952Z,2.03
2023-05-21T10:02:45.886Z,2.15
2023-05-21T10:06:10.202Z,2.20
2023-05-21T10:09:33.805Z,1.83
2023-05-21T10:13:00.139Z,2.00
2023-05-21T10:16:22.707Z,1.70
2023-05-21T10:19:45.893Z,1.88
2023-05-21T10:23:08.668Z,2.20
2023-05-21T10:26:32.574Z,1.67
2023-05-21T10:29:58.507Z,2.03
2023-05-21T10:33:21.672Z,1.85
2023-05-21T10:36:45.157Z,2.20
2023-05-21T10:40:08.822Z,2.03
2023-05-21T10:43:49.450Z,1.70
2023-05-21T10:47:31.341Z,1.60
2023-05-21T10:51:11.124Z,2.03
2023-05-21T10:54:54.519Z,3.15
2023-05-21T10:58:43.193Z,2.22
2023-05-21T11:02:08.236Z,2.13
2023-05-21T11:05:54.004Z,1.55
2023-05-21T11:09:17.156Z,2.20
2023-05-21T11:13:13.659Z,1.27
2023-05-21T11:16:37.550Z,1.50
2023-05-21T11:20:05.882Z,2.30
2023-05-21T11:23:52.734Z,1.92
2023-05-21T11:27:14.946Z,2.25
2023-05-21T11:30:37.804Z,1.42
2023-05-21T11:34:14.162Z,1.52
2023-05-21T11:37:40.732Z,1.45
2023-05-21T11:41:04.455Z,2.00
2023-05-21T11:44:41.050Z,1.75
2023-05-21T11:48:03.786Z,1.58
2023-05-21T11:51:26.368Z,1.73
2023-05-21T11:54:52.067Z,1.70
2023-05-21T11:58:16.678Z,1.90
2023-05-21T12:01:39.498Z,1.52
2023-05-21T12:05:04.023Z,1.65
2023-05-21T12:08:27.186Z,1.70
2023-05-21T12:11:51.529Z,1.25
2023-05-21T12:15:15.148Z,1.75
2023-05-21T12:18:38.291Z,1.60
2023-05-21T12:22:02.509Z,1.80
2023-05-21T12:25:24.693Z,1.55
2023-05-21T12:28:48.993Z,1.55
2023-05-21T12:32:12.821Z,1.55
2023-05-21T12:35:34.727Z,1.50
2023-05-21T12:38:56.468Z,2.00
2023-05-21T12:42:25.650Z,2.10
2023-05-21T12:45:48.874Z,1.83
2023-05-21T12:49:38.028Z,1.60
2023-05-21T12:53:00.044Z,1.33
2023-05-21T12:56:22.638Z,1.30
2023-05-21T12:59:53.230Z,1.45
2023-05-21T13:03:16.663Z,1.55
2023-05-21T13:06:44.877Z,1.48
2023-05-21T13:13:29.722Z,1.70
2023-05-21T13:16:52.081Z,1.42
2023-05-21T13:20:18.514Z,1.40
2023-05-21T13:23:40.341Z,1.70
2023-05-21T13:27:02.340Z,1.58
2023-05-21T13:30:24.227Z,1.45
2023-05-21T13:33:46.094Z,1.70
2023-05-21T13:37:09.604Z,2.80
2023-05-21T13:40:31.868Z,2.08
2023-05-21T13:43:53.721Z,1.73
2023-05-21T13:47:15.835Z,1.80
2023-05-21T13:50:37.799Z,1.70
2023-05-21T13:54:01.232Z,1.35
2023-05-21T13:57:23.604Z,1.50
2023-05-21T14:00:45.733Z,1.30
2023-05-21T14:04:08.476Z,1.65
2023-05-21T14:07:31.107Z,1.45
2023-05-21T14:10:54.471Z,1.58
2023-05-21T14:14:19.194Z,1.60
2023-05-21T14:17:42.584Z,1.90
2023-05-21T14:21:04.647Z,2.00
2023-05-21T14:24:26.504Z,3.00
2023-05-21T14:27:49.680Z,1.30
2023-05-21T14:31:11.773Z,1.52
2023-05-21T14:34:33.865Z,1.98
2023-05-21T14:37:55.990Z,1.60
2023-05-21T14:41:17.989Z,1.80
2023-05-21T14:44:41.472Z,1.60
2023-05-21T14:48:08.629Z,1.48
2023-05-21T14:51:31.691Z,1.63
2023-05-21T14:54:53.705Z,1.55
2023-05-21T14:58:15.609Z,1.63
2023-05-21T15:01:38.955Z,1.30
2023-05-21T15:05:02.245Z,1.73
2023-05-21T15:08:24.007Z,1.52
2023-05-21T15:11:46.291Z,1.73
2023-05-21T15:15:09.269Z,1.70
2023-05-21T15:18:32.427Z,1.75
2023-05-21T15:21:54.520Z,1.48
2023-05-21T15:25:19.325Z,1.90
2023-05-21T15:28:41.301Z,2.13
2023-05-21T15:32:05.359Z,2.15
2023-05-21T15:35:28.925Z,1.33
2023-05-21T15:38:50.828Z,1.45
2023-05-21T15:42:13.192Z,1.70
2023-05-21T15:45:35.354Z,2.83
2023-05-21T15:48:57.297Z,1.60
2023-05-21T15:52:21.631Z,1.75
2023-05-21T15:55:43.321Z,1.52
2023-05-21T15:59:05.253Z,1.65
2023-05-21T16:02:27.363Z,1.30
2023-05-21T16:05:49.290Z,1.80
2023-05-21T16:09:15.296Z,1.65
2023-05-21T16:12:37.148Z,1.70
2023-05-21T16:15:58.973Z,2.13
2023-05-21T16:19:21.205Z,3.40
2023-05-21T16:22:43.022Z,2.53
2023-05-21T16:26:06.874Z,2.42
2023-05-21T16:29:28.631Z,3.10
2023-05-21T16:32:50.548Z,2.58
2023-05-21T16:36:12.434Z,2.25
2023-05-21T16:39:34.285Z,2.10
2023-05-21T16:43:00.486Z,2.25
2023-05-21T16:46:23.670Z,1.80
2023-05-21T16:49:45.311Z,2.75
2023-05-21T16:53:09.904Z,1.70
2023-05-21T16:56:32.054Z,2.03
2023-05-21T16:59:55.366Z,2.20
2023-05-21T17:03:17.461Z,2.00
2023-05-21T17:06:39.063Z,1.80
2023-05-21T17:10:01.241Z,2.63
2023-05-21T17:13:23.501Z,3.47
2023-05-21T17:16:47.142Z,2.25
2023-05-21T17:20:10.395Z,2.38
2023-05-21T17:23:32.111Z,1.67
2023-05-21T17:26:54.173Z,1.83
2023-05-21T17:30:16.395Z,1.67
2023-05-21T17:33:40.807Z,1.65
2023-05-21T17:37:03.037Z,1.50
2023-05-21T17:40:25.360Z,1.48
2023-05-21T17:43:47.458Z,1.50
2023-05-21T17:47:09.872Z,1.42
2023-05-21T17:50:34.388Z,1.30
2023-05-21T17:53:57.279Z,1.90
2023-05-21T17:57:20.519Z,1.75
2023-05-21T18:00:43.102Z,2.13
2023-05-21T18:04:06.146Z,1.85
2023-05-21T18:07:29.915Z,2.00
2023-05-21T18:10:52.120Z,1.88
2023-05-21T18:14:14.393Z,2.80
2023-05-21T18:17:36.275Z,1.90
2023-05-21T18:20:58.109Z,1.20
2023-05-21T18:24:22.380Z,1.30
2023-05-21T18:27:44.364Z,1.20
2023-05-21T18:31:06.143Z,1.85
2023-05-21T18:34:28.653Z,1.13
2023-05-21T18:37:50.339Z,1.20
2023-05-21T18:41:13.626Z,1.10
2023-05-21T18:44:35.810Z,1.42
2023-05-21T18:47:57.472Z,1.40
2023-05-21T18:51:19.317Z,1.10
2023-05-21T18:54:41.755Z,1.20
2023-05-21T18:58:05.273Z,1.65
2023-05-21T19:01:28.116Z,1.58
2023-05-21T19:04:50.085Z,1.45
2023-05-21T19:08:12.101Z,1.50
2023-05-21T19:11:35.017Z,1.35
2023-05-21T19:14:58.541Z,1.30
2023-05-21T19:18:20.739Z,1.10
2023-05-21T19:21:42.801Z,1.38
2023-05-21T19:25:05.613Z,1.20
2023-05-21T19:28:28.373Z,1.40
2023-05-21T19:31:55.197Z,1.30
2023-05-21T19:35:17.366Z,1.17
2023-05-21T19:38:40.170Z,1.58
2023-05-21T19:42:02.814Z,1.13
2023-05-21T19:45:25.539Z,1.30
2023-05-21T19:48:49.308Z,1.38
2023-05-21T19:52:12.241Z,1.10
2023-05-21T19:55:36.973Z,1.48
2023-05-21T19:58:59.206Z,1.50
2023-05-21T20:02:23.364Z,1.23
2023-05-21T20:05:46.594Z,1.10
2023-05-21T20:09:10.969Z,1.33
2023-05-21T20:12:33.093Z,1.20
2023-05-21T20:15:54.811Z,1.08
2023-05-21T20:19:16.882Z,1.10
2023-05-21T20:22:40.057Z,1.35
2023-05-21T20:26:02.015Z,1.20
2023-05-21T20:29:23.797Z,1.77
2023-05-21T20:32:48.455Z,1.42
2023-05-21T20:36:10.627Z,1.63
2023-05-21T20:39:33.983Z,1.70
2023-05-21T20:42:56.309Z,1.70
2023-05-21T20:46:18.577Z,1.60
2023-05-21T20:49:40.487Z,1.10
2023-05-21T20:53:02.719Z,1.13
2023-05-21T20:56:40.738Z,1.27
2023-05-21T21:00:05.431Z,1.27
2023-05-21T21:03:29.855Z,0.98
2023-05-21T21:06:52.038Z,1.30
2023-05-21T21:10:14.164Z,0.90
2023-05-21T21:13:37.847Z,1.20
2023-05-21T21:16:59.822Z,1.30
2023-05-21T21:20:21.790Z,0.90
2023-05-21T21:23:43.864Z,1.10
2023-05-21T21:27:06.189Z,1.00
2023-05-21T21:30:29.151Z,1.13
2023-05-21T21:33:51.078Z,1.00
2023-05-21T21:37:13.642Z,1.40
2023-05-21T21:40:35.568Z,0.90
2023-05-21T21:43:57.511Z,1.27
2023-05-21T21:47:20.822Z,1.05
2023-05-21T21:50:42.825Z,1.08
2023-05-21T21:54:04.889Z,0.80
2023-05-21T21:57:29.500Z,0.75
2023-05-21T22:00:51.428Z,1.08
2023-05-21T22:04:14.727Z,0.90
2023-05-21T22:07:38.906Z,1.13
2023-05-21T22:11:01.464Z,1.10
2023-05-21T22:14:23.470Z,0.70
2023-05-21T22:17:45.709Z,1.00
2023-05-21T22:21:10.183Z,1.00
2023-05-21T22:24:33.381Z,1.15
2023-05-21T22:27:55.656Z,0.75
2023-05-21T22:31:17.862Z,0.90
2023-05-21T22:34:39.497Z,0.95
2023-05-21T22:38:03.023Z,1.15
2023-05-21T22:41:25.079Z,1.10
2023-05-21T22:44:46.822Z,1.10
2023-05-21T22:48:08.793Z,0.82
2023-05-21T22:51:34.960Z,0.90
2023-05-21T22:55:00.759Z,1.05
2023-05-21T22:58:22.640Z,1.05
2023-05-21T23:01:44.970Z,1.00
2023-05-21T23:05:09.727Z,1.13
2023-05-21T23:08:31.728Z,1.00
2023-05-21T23:11:55.379Z,1.33
2023-05-21T23:15:17.672Z,0.80
2023-05-21T23:18:40.287Z,0.88
2023-05-21T23:22:02.502Z,0.90
2023-05-21T23:25:24.229Z,1.00
2023-05-21T23:28:47.733Z,0.93
2023-05-21T23:32:10.158Z,0.80
2023-05-21T23:35:31.865Z,0.85
2023-05-21T23:38:53.792Z,1.00
2023-05-21T23:42:15.749Z,1.00
2023-05-21T23:45:38.781Z,1.40
2023-05-21T23:49:00.628Z,1.17
2023-05-21T23:52:24.255Z,1.00
2023-05-21T23:55:45.907Z,1.20
2023-05-21T23:59:07.754Z,1.35
